Padre Island National Seasho, Texas
Current Conditions -  °F | °C
As of 1:56 AM on Thursday 27 Nov 2014 (Local Time) from KNGP Reporting Station
Clear Clear  
Wind Chill: 56°   Ceiling: Unl
Heat Index: 56°   Visibility: 10mi
Dew Point: 53°   Wind: 7mph
Humidity: 90%   Direction: 200°SSW
Pressure: 30.32"   Gusts: NA
Location:  27.6599°N, 97.2972°W
Report Text: KNGP 270756Z AUTO 20006KT 10SM CLR 13/12 A3032 RMK AO2 SLP267 T01330117
Loading
Personal Weather Stations






























Interactive Weather Map New forecast layout! Learn more

10-Day Weather Forecast

Advertisements
Track Severe Weather on mobile